Terminal Aerodrome Forecast
Issued by NWS

Home | Current Version | Previous Version | Text Only | Print | Product List | Glossary On
Versions: 1 2 3 4 5 6 7 8 9 10 11 12 13 14 15 16 17 18 19 20 21 22 23 24 25
000
FTUS43 KBIS 261404 AAA
TAFJMS
TAF AMD
KJMS 261404Z 2614/2712 27009KT P6SM BKN010
     FM261600 26010G18KT P6SM SCT060
     FM270200 17004KT P6SM SCT090
     FM271100 02004KT P6SM SCT040=

USA.gov is the U.S. government's official web portal to all federal, state and local government web resources and services.